This is the latest recevied weather packets stored in our database for station/object IZ1HMT-2. If no packets are shown the sender has not sent any weather packets the latest 10 day(s).
| Time | Temp. | Humidity | Pressure | Rain* | Wind** | Luminosity | Snow |
|---|---|---|---|---|---|---|---|
| 1787829972 | 70° F | 60% | 785.4 mmHg | - | - | - | - |
| 1787829069 | 68° F | 61% | 785.5 mmHg | - | - | - | - |
| 1787828169 | 68° F | 60% | 785.5 mmHg | - | - | - | - |
| 1787827269 | 69° F | 58% | 785.4 mmHg | - | - | - | - |
| 1787826369 | 69° F | 56% | 785.5 mmHg | - | - | - | - |
| 1787825469 | 70° F | 54% | 785.5 mmHg | - | - | - | - |
| 1787824569 | 69° F | 53% | 785.4 mmHg | - | - | - | - |
| 1787823669 | 70° F | 54% | 785.4 mmHg | - | - | - | - |
| 1787822768 | 70° F | 53% | 785.3 mmHg | - | - | - | - |
| 1787821868 | 71° F | 49% | 785.2 mmHg | - | - | - | - |
| 1787820968 | 70° F | 53% | 785.1 mmHg | - | - | - | - |
| 1787820068 | 71° F | 52% | 785.1 mmHg | - | - | - | - |
| 1787819168 | 69° F | 56% | 784.9 mmHg | - | - | - | - |
| 1787818268 | 68° F | 56% | 784.7 mmHg | - | - | - | - |
| 1787817367 | 67° F | 57% | 784.7 mmHg | - | - | - | - |
| 1787816467 | 66° F | 58% | 784.6 mmHg | - | - | - | - |
| 1787815567 | 66° F | 59% | 784.6 mmHg | - | - | - | - |
| 1787814667 | 65° F | 58% | 784.7 mmHg | - | - | - | - |
| 1787813767 | 65° F | 58% | 784.7 mmHg | - | - | - | - |
| 1787812866 | 64° F | 58% | 784.6 mmHg | - | - | - | - |
| 1787811966 | 63° F | 58% | 784.6 mmHg | - | - | - | - |
| 1787743391 | 63° F | 86% | 784.9 mmHg | - | - | - | - |
| 1787742485 | 64° F | 78% | 784.8 mmHg | - | - | - | - |
| 1787741585 | 65° F | 80% | 784.7 mmHg | - | - | - | - |
| 1787740685 | 64° F | 82% | 784.9 mmHg | - | - | - | - |
* Rain since midnight (hover to see other rain measurements)
** Current wind speed in m/s (hover to see current wind gust speed)